createdAt,value
2019-02-22T00:00:50.181Z,9.39
2019-02-22T00:01:55.436Z,9.41
2019-02-22T00:02:58.927Z,9.38
2019-02-22T00:04:02.516Z,9.33
2019-02-22T00:05:06.279Z,9.34
2019-02-22T00:06:09.778Z,9.36
2019-02-22T00:07:13.287Z,9.37
2019-02-22T00:08:16.719Z,9.38
2019-02-22T00:09:20.148Z,9.33
2019-02-22T00:10:23.751Z,9.36
2019-02-22T00:11:27.180Z,9.28
2019-02-22T00:12:30.746Z,9.30
2019-02-22T00:13:34.204Z,9.28
2019-02-22T00:14:37.663Z,9.26
2019-02-22T00:15:41.132Z,9.21
2019-02-22T00:16:44.656Z,9.22
2019-02-22T00:17:48.221Z,9.24
2019-02-22T00:18:51.655Z,9.28
2019-02-22T00:19:55.086Z,9.26
2019-02-22T00:20:58.541Z,9.26
2019-02-22T00:22:02.013Z,9.22
2019-02-22T00:23:05.506Z,9.20
2019-02-22T00:24:08.939Z,9.23
2019-02-22T00:25:12.441Z,9.24
2019-02-22T00:26:15.891Z,9.23
2019-02-22T00:27:19.387Z,9.27
2019-02-22T00:28:22.827Z,9.20
2019-02-22T00:29:26.338Z,9.15
2019-02-22T00:30:29.849Z,9.15
2019-02-22T00:31:33.380Z,9.19
2019-02-22T00:32:36.903Z,9.20
2019-02-22T00:33:40.343Z,9.21
2019-02-22T00:34:43.855Z,9.26
2019-02-22T00:35:47.409Z,9.26
2019-02-22T00:36:50.836Z,9.30
2019-02-22T00:37:54.277Z,9.11
2019-02-22T00:38:57.711Z,9.11
2019-02-22T00:40:01.153Z,9.09
2019-02-22T00:41:04.664Z,9.03
2019-02-22T00:42:08.120Z,9.10
2019-02-22T00:43:11.575Z,9.19
2019-02-22T00:44:15.002Z,9.19
2019-02-22T00:45:18.442Z,9.20
2019-02-22T00:46:21.942Z,9.16
2019-02-22T00:47:25.387Z,9.19
2019-02-22T00:48:28.829Z,9.13
2019-02-22T00:49:32.260Z,9.12
2019-02-22T00:50:35.689Z,9.17
2019-02-22T00:51:39.199Z,9.22
2019-02-22T00:52:42.658Z,9.22
2019-02-22T00:53:46.108Z,9.20
2019-02-22T00:54:49.605Z,9.19
2019-02-22T00:55:53.053Z,9.21
2019-02-22T00:56:56.515Z,9.24
2019-02-22T00:57:59.961Z,9.24
2019-02-22T00:59:03.398Z,9.24
2019-02-22T01:00:09.181Z,9.24
2019-02-22T01:01:12.610Z,9.19
2019-02-22T01:02:16.050Z,9.19
2019-02-22T01:03:19.573Z,9.19
2019-02-22T01:04:23.089Z,9.12
2019-02-22T01:05:26.516Z,9.10
2019-02-22T01:06:29.954Z,9.10
2019-02-22T01:07:33.403Z,9.06
2019-02-22T01:08:36.848Z,9.08
2019-02-22T01:09:40.365Z,9.10
2019-02-22T01:10:43.818Z,9.03
2019-02-22T01:11:47.265Z,8.99
2019-02-22T01:12:50.681Z,8.97
2019-02-22T01:13:54.231Z,8.97
2019-02-22T01:14:57.674Z,8.96
2019-02-22T01:16:01.103Z,8.99
2019-02-22T01:17:04.527Z,9.00
2019-02-22T01:18:08.034Z,9.00
2019-02-22T01:19:11.515Z,9.04
2019-02-22T01:20:15.022Z,9.06
2019-02-22T01:21:18.489Z,9.00
2019-02-22T01:22:21.912Z,9.00
2019-02-22T01:23:25.351Z,8.96
2019-02-22T01:24:28.876Z,8.99
2019-02-22T01:25:32.373Z,9.02
2019-02-22T01:26:35.819Z,9.02
2019-02-22T01:27:39.250Z,8.96
2019-02-22T01:28:42.669Z,8.96
2019-02-22T01:29:46.190Z,8.96
2019-02-22T01:30:49.644Z,9.02
2019-02-22T01:31:53.075Z,9.00
2019-02-22T01:32:56.516Z,8.96
2019-02-22T01:34:00.013Z,8.91
2019-02-22T01:35:03.461Z,8.92
2019-02-22T01:36:06.904Z,8.94
2019-02-22T01:37:10.405Z,8.99
2019-02-22T01:38:13.850Z,8.94
2019-02-22T01:39:17.274Z,8.85
2019-02-22T01:40:20.722Z,8.87
2019-02-22T01:41:24.155Z,8.92
2019-02-22T01:42:27.591Z,8.92
2019-02-22T01:43:33.381Z,9.00
2019-02-22T01:44:36.256Z,8.98
2019-02-22T01:45:39.702Z,8.91
2019-02-22T01:46:43.128Z,8.85
2019-02-22T01:47:46.630Z,8.84
2019-02-22T01:48:50.083Z,8.89
2019-02-22T01:49:53.545Z,8.87
2019-02-22T01:50:56.999Z,8.92
2019-02-22T01:52:00.546Z,8.90
2019-02-22T01:53:03.974Z,8.90
2019-02-22T01:54:07.410Z,8.85
2019-02-22T01:55:10.910Z,8.85
2019-02-22T01:56:14.504Z,8.89
2019-02-22T01:57:17.930Z,8.91
2019-02-22T01:58:21.435Z,8.91
2019-02-22T01:59:24.868Z,8.97
2019-02-22T02:00:28.378Z,8.94
2019-02-22T02:01:31.909Z,8.95
2019-02-22T02:02:35.339Z,8.97
2019-02-22T02:03:38.766Z,8.99
2019-02-22T02:04:42.212Z,8.98
2019-02-22T02:05:45.715Z,8.95
2019-02-22T02:06:49.232Z,8.88
2019-02-22T02:07:52.676Z,8.87
2019-02-22T02:08:56.112Z,8.89
2019-02-22T02:09:59.533Z,8.92
2019-02-22T02:11:02.959Z,8.95
2019-02-22T02:12:06.417Z,8.92
2019-02-22T02:13:09.883Z,8.90
2019-02-22T02:14:13.313Z,8.90
2019-02-22T02:15:16.761Z,8.90
2019-02-22T02:16:20.190Z,8.86
2019-02-22T02:17:23.648Z,8.79
2019-02-22T02:18:27.098Z,8.81
2019-02-22T02:19:30.530Z,8.81
2019-02-22T02:20:33.962Z,8.84
2019-02-22T02:21:37.482Z,8.84
2019-02-22T02:22:40.913Z,8.82
2019-02-22T02:23:44.430Z,8.76
2019-02-22T02:24:47.851Z,8.76
2019-02-22T02:25:51.351Z,8.79
2019-02-22T02:26:54.790Z,8.80
2019-02-22T02:27:58.235Z,8.73
2019-02-22T02:29:01.750Z,8.73
2019-02-22T02:30:07.617Z,8.69
2019-02-22T02:31:11.031Z,8.69
2019-02-22T02:32:14.473Z,8.62
2019-02-22T02:33:17.987Z,8.62
2019-02-22T02:34:21.483Z,8.61
2019-02-22T02:35:24.984Z,8.64
2019-02-22T02:36:28.434Z,8.64
2019-02-22T02:37:31.869Z,8.61
2019-02-22T02:38:35.301Z,8.60
2019-02-22T02:39:38.773Z,8.64
2019-02-22T02:40:42.191Z,8.68
2019-02-22T02:41:45.621Z,8.72
2019-02-22T02:42:49.053Z,8.74
2019-02-22T02:43:52.511Z,8.74
2019-02-22T02:44:55.944Z,8.77
2019-02-22T02:45:59.377Z,8.75
2019-02-22T02:47:02.806Z,8.76
2019-02-22T02:48:06.248Z,8.75
2019-02-22T02:49:09.704Z,8.78
2019-02-22T02:50:16.187Z,8.73
2019-02-22T02:51:19.696Z,8.67
2019-02-22T02:52:23.166Z,8.69
2019-02-22T02:53:26.604Z,8.61
2019-02-22T02:54:30.057Z,8.64
2019-02-22T02:55:34.950Z,8.62
2019-02-22T02:56:38.453Z,8.62
2019-02-22T02:57:41.894Z,8.68
2019-02-22T02:58:45.327Z,8.71
2019-02-22T02:59:48.774Z,8.62
2019-02-22T03:00:52.214Z,8.62
2019-02-22T03:01:55.718Z,8.62
2019-02-22T03:02:59.287Z,8.56
2019-02-22T03:04:02.718Z,8.63
2019-02-22T03:05:06.311Z,8.58
2019-02-22T03:06:11.402Z,8.58
2019-02-22T03:07:16.463Z,8.62
2019-02-22T03:08:20.467Z,8.64
2019-02-22T03:09:23.906Z,8.67
2019-02-22T03:10:27.398Z,8.68
2019-02-22T03:11:30.860Z,8.69
2019-02-22T03:12:34.270Z,8.69
2019-02-22T03:13:37.703Z,8.63
2019-02-22T03:14:41.139Z,8.52
2019-02-22T03:15:44.656Z,8.52
2019-02-22T03:16:48.047Z,8.55
2019-02-22T03:17:51.487Z,8.53
2019-02-22T03:18:54.945Z,8.44
2019-02-22T03:19:58.393Z,8.37
2019-02-22T03:21:01.836Z,8.37
2019-02-22T03:22:05.342Z,8.45
2019-02-22T03:23:08.779Z,8.53
2019-02-22T03:24:12.223Z,8.53
2019-02-22T03:25:15.656Z,8.54
2019-02-22T03:26:19.115Z,8.54
2019-02-22T03:27:22.635Z,8.56
2019-02-22T03:28:26.065Z,8.56
2019-02-22T03:29:29.507Z,8.50
2019-02-22T03:30:33.027Z,8.50
2019-02-22T03:31:36.560Z,8.46
2019-02-22T03:32:40.010Z,8.46
2019-02-22T03:33:43.451Z,8.47
2019-02-22T03:34:46.959Z,8.46
2019-02-22T03:35:50.388Z,8.54
2019-02-22T03:36:53.869Z,8.45
2019-02-22T03:37:57.309Z,8.45
2019-02-22T03:39:00.742Z,8.36
2019-02-22T03:40:05.910Z,8.38
2019-02-22T03:41:09.349Z,8.38
2019-02-22T03:42:12.814Z,8.38
2019-02-22T03:43:16.248Z,8.29
2019-02-22T03:44:19.688Z,8.27
2019-02-22T03:45:23.126Z,8.26
2019-02-22T03:46:26.563Z,8.26
2019-02-22T03:47:30.093Z,8.22
2019-02-22T03:48:33.533Z,8.22
2019-02-22T03:49:37.066Z,8.22
2019-02-22T03:50:40.505Z,8.14
2019-02-22T03:51:43.944Z,8.11
2019-02-22T03:52:51.529Z,8.11
2019-02-22T03:53:57.393Z,8.16
2019-02-22T03:55:00.502Z,8.15
2019-02-22T03:56:04.078Z,8.19
2019-02-22T03:57:07.642Z,8.18
2019-02-22T03:58:11.184Z,8.02
2019-02-22T03:59:14.750Z,8.02
2019-02-22T04:00:18.259Z,8.07
2019-02-22T04:01:21.819Z,8.08
2019-02-22T04:02:25.405Z,8.12
2019-02-22T04:03:28.918Z,8.06
2019-02-22T04:04:32.445Z,8.10
2019-02-22T04:05:35.879Z,8.11
2019-02-22T04:06:39.310Z,8.11
2019-02-22T04:07:42.739Z,8.10
2019-02-22T04:08:46.492Z,7.98
2019-02-22T04:09:49.921Z,7.98
2019-02-22T04:10:53.363Z,8.00
2019-02-22T04:11:56.786Z,7.93
2019-02-22T04:13:00.234Z,7.89
2019-02-22T04:14:03.692Z,7.92
2019-02-22T04:15:09.683Z,7.93
2019-02-22T04:16:13.186Z,7.98
2019-02-22T04:17:16.617Z,7.97
2019-02-22T04:18:20.136Z,7.97
2019-02-22T04:19:23.625Z,7.86
2019-02-22T04:20:27.152Z,7.85
2019-02-22T04:21:30.600Z,7.84
2019-02-22T04:22:34.095Z,7.85
2019-02-22T04:23:37.595Z,7.89
2019-02-22T04:24:41.067Z,7.91
2019-02-22T04:25:44.642Z,7.96
2019-02-22T04:26:48.079Z,7.99
2019-02-22T04:27:51.513Z,7.92
2019-02-22T04:28:54.952Z,8.00
2019-02-22T04:29:58.410Z,8.05
2019-02-22T04:31:01.839Z,7.95
2019-02-22T04:32:05.340Z,7.88
2019-02-22T04:33:08.906Z,7.88
2019-02-22T04:34:12.375Z,7.83
2019-02-22T04:35:15.785Z,7.83
2019-02-22T04:36:19.230Z,7.82
2019-02-22T04:37:22.661Z,7.82
2019-02-22T04:38:26.105Z,7.90
2019-02-22T04:39:29.536Z,7.88
2019-02-22T04:40:33.066Z,7.85
2019-02-22T04:41:36.519Z,7.83
2019-02-22T04:42:39.961Z,7.81
2019-02-22T04:43:43.387Z,7.85
2019-02-22T04:44:46.828Z,7.86
2019-02-22T04:45:50.277Z,7.91
2019-02-22T04:46:53.719Z,7.90
2019-02-22T04:47:57.281Z,7.94
2019-02-22T04:49:00.655Z,7.95
2019-02-22T04:50:04.462Z,7.97
2019-02-22T04:51:07.979Z,7.95
2019-02-22T04:52:11.508Z,8.01
2019-02-22T04:53:14.941Z,8.05
2019-02-22T04:54:18.387Z,8.05
2019-02-22T04:55:21.849Z,8.03
2019-02-22T04:56:25.338Z,8.06
2019-02-22T04:57:28.846Z,8.08
2019-02-22T04:58:32.278Z,8.05
2019-02-22T04:59:35.733Z,8.06
2019-02-22T05:00:39.182Z,8.07
2019-02-22T05:01:42.606Z,8.08
2019-02-22T05:02:46.129Z,8.08
2019-02-22T05:03:49.573Z,8.08
2019-02-22T05:04:53.081Z,8.07
2019-02-22T05:05:56.515Z,8.09
2019-02-22T05:06:59.983Z,8.09
2019-02-22T05:08:03.418Z,8.11
2019-02-22T05:09:07.000Z,8.12
2019-02-22T05:10:10.430Z,8.13
2019-02-22T05:11:13.873Z,8.14
2019-02-22T05:12:17.312Z,8.11
2019-02-22T05:13:20.746Z,8.11
2019-02-22T05:14:24.187Z,8.14
2019-02-22T05:15:27.631Z,8.16
2019-02-22T05:16:31.067Z,8.11
2019-02-22T05:17:35.719Z,8.12
2019-02-22T05:18:39.318Z,8.16
2019-02-22T05:19:42.762Z,8.19
2019-02-22T05:20:46.261Z,8.25
2019-02-22T05:21:49.719Z,8.29
2019-02-22T05:23:03.363Z,8.27
2019-02-22T05:23:58.325Z,8.25
2019-02-22T05:25:01.766Z,8.25
2019-02-22T05:26:05.353Z,8.16
2019-02-22T05:27:08.774Z,8.13
2019-02-22T05:28:12.224Z,8.06
2019-02-22T05:29:15.677Z,8.04
2019-02-22T05:30:19.181Z,8.09
2019-02-22T05:31:22.606Z,8.16
2019-02-22T05:32:26.122Z,8.29
2019-02-22T05:33:29.561Z,8.29
2019-02-22T05:34:33.011Z,8.24
2019-02-22T05:35:36.450Z,8.20
2019-02-22T05:36:39.889Z,8.20
2019-02-22T05:37:43.394Z,8.20
2019-02-22T05:38:46.843Z,8.14
2019-02-22T05:39:50.322Z,8.10
2019-02-22T05:40:53.737Z,8.13
2019-02-22T05:41:57.182Z,8.13
2019-02-22T05:43:00.623Z,8.15
2019-02-22T05:44:04.071Z,8.18
2019-02-22T05:45:07.939Z,8.11
2019-02-22T05:46:11.431Z,8.10
2019-02-22T05:47:14.875Z,8.06
2019-02-22T05:48:18.300Z,8.04
2019-02-22T05:49:22.561Z,8.03
2019-02-22T05:50:26.065Z,8.04
2019-02-22T05:51:29.573Z,8.03
2019-02-22T05:52:33.104Z,8.06
2019-02-22T05:53:36.551Z,8.13
2019-02-22T05:54:40.045Z,8.18
2019-02-22T05:55:44.426Z,8.22
2019-02-22T05:56:47.963Z,8.26
2019-02-22T05:57:51.387Z,8.25
2019-02-22T05:58:54.818Z,8.21
2019-02-22T05:59:58.292Z,8.14
2019-02-22T06:01:01.743Z,8.18
2019-02-22T06:02:05.363Z,8.21
2019-02-22T06:03:08.895Z,8.19
2019-02-22T06:04:12.352Z,8.19
2019-02-22T06:05:15.845Z,8.09
2019-02-22T06:06:19.384Z,8.08
2019-02-22T06:07:22.923Z,8.09
2019-02-22T06:08:26.506Z,8.14
2019-02-22T06:09:29.951Z,8.15
2019-02-22T06:10:33.491Z,8.16
2019-02-22T06:11:36.928Z,8.13
2019-02-22T06:12:40.516Z,8.11
2019-02-22T06:13:43.978Z,8.06
2019-02-22T06:14:47.414Z,8.08
2019-02-22T06:15:50.858Z,8.14
2019-02-22T06:16:54.298Z,8.11
2019-02-22T06:17:57.727Z,8.11
2019-02-22T06:19:01.235Z,8.16
2019-02-22T06:20:07.382Z,8.14
2019-02-22T06:21:10.896Z,8.13
2019-02-22T06:22:14.358Z,8.15
2019-02-22T06:23:17.781Z,8.19
2019-02-22T06:24:21.229Z,8.14
2019-02-22T06:25:24.664Z,8.14
2019-02-22T06:26:30.391Z,8.06
2019-02-22T06:27:33.385Z,8.01
2019-02-22T06:28:36.889Z,8.01
2019-02-22T06:29:40.335Z,8.11
2019-02-22T06:30:43.833Z,8.11
2019-02-22T06:31:47.381Z,7.97
2019-02-22T06:32:50.852Z,7.99
2019-02-22T06:33:54.296Z,8.03
2019-02-22T06:34:57.737Z,8.04
2019-02-22T06:36:01.208Z,8.08
2019-02-22T06:37:04.787Z,8.07
2019-02-22T06:38:08.254Z,8.07
2019-02-22T06:39:11.764Z,8.07
2019-02-22T06:40:15.196Z,8.09
2019-02-22T06:41:18.632Z,8.12
2019-02-22T06:42:22.171Z,8.14
2019-02-22T06:43:25.624Z,8.18
2019-02-22T06:44:29.068Z,8.17
2019-02-22T06:45:32.499Z,8.18
2019-02-22T06:46:35.930Z,8.14
2019-02-22T06:47:39.387Z,8.13
2019-02-22T06:48:42.851Z,8.17
2019-02-22T06:49:46.290Z,8.17
2019-02-22T06:50:49.733Z,8.12
2019-02-22T06:51:53.158Z,8.11
2019-02-22T06:52:56.615Z,8.18
2019-02-22T06:54:00.079Z,8.17
2019-02-22T06:55:04.059Z,8.08
2019-02-22T06:56:07.625Z,8.08
2019-02-22T06:57:11.058Z,8.13
2019-02-22T06:58:14.606Z,8.19
2019-02-22T06:59:18.051Z,8.14
2019-02-22T07:00:21.535Z,8.19
2019-02-22T07:01:24.947Z,8.19
2019-02-22T07:02:28.380Z,8.19
2019-02-22T07:03:31.835Z,8.21
2019-02-22T07:04:35.272Z,8.20
2019-02-22T07:05:38.709Z,8.20
2019-02-22T07:06:42.195Z,8.17
2019-02-22T07:07:45.689Z,8.21
2019-02-22T07:08:49.157Z,8.24
2019-02-22T07:09:52.668Z,8.26
2019-02-22T07:10:57.874Z,8.26
2019-02-22T07:12:05.719Z,8.30
2019-02-22T07:13:09.149Z,8.33
2019-02-22T07:14:12.608Z,8.33
2019-02-22T07:15:16.045Z,8.31
2019-02-22T07:16:19.560Z,8.26
2019-02-22T07:17:23.003Z,8.23
2019-02-22T07:18:26.439Z,8.23
2019-02-22T07:19:29.894Z,8.27
2019-02-22T07:20:33.347Z,8.28
2019-02-22T07:21:51.657Z,8.25
2019-02-22T07:22:42.008Z,8.27
2019-02-22T07:23:45.434Z,8.35
2019-02-22T07:24:48.893Z,8.36
2019-02-22T07:25:52.322Z,8.37
2019-02-22T07:26:55.771Z,8.36
2019-02-22T07:27:59.246Z,8.32
2019-02-22T07:29:02.648Z,8.26
2019-02-22T07:30:09.138Z,8.35
2019-02-22T07:31:12.593Z,8.35
2019-02-22T07:32:16.037Z,8.26
2019-02-22T07:33:19.538Z,8.26
2019-02-22T07:34:23.054Z,8.24
2019-02-22T07:35:26.529Z,8.20
2019-02-22T07:36:30.039Z,8.18
2019-02-22T07:37:33.501Z,8.18
2019-02-22T07:38:36.918Z,8.22
2019-02-22T07:39:40.346Z,8.22
2019-02-22T07:40:43.807Z,8.13
2019-02-22T07:41:47.323Z,8.15
2019-02-22T07:42:50.769Z,8.21
2019-02-22T07:43:54.211Z,8.26
2019-02-22T07:44:57.641Z,8.28
2019-02-22T07:46:01.100Z,8.28
2019-02-22T07:47:04.618Z,8.32
2019-02-22T07:48:08.067Z,8.32
2019-02-22T07:49:11.497Z,8.29
2019-02-22T07:50:15.063Z,8.21
2019-02-22T07:51:18.453Z,8.17
2019-02-22T07:52:21.887Z,8.24
2019-02-22T07:53:25.317Z,8.21
2019-02-22T07:54:28.751Z,8.20
2019-02-22T07:55:32.192Z,8.15
2019-02-22T07:56:35.702Z,8.19
2019-02-22T07:57:40.121Z,8.23
2019-02-22T07:58:43.766Z,8.28
2019-02-22T07:59:47.222Z,8.27
2019-02-22T08:00:50.705Z,8.32
2019-02-22T08:01:54.300Z,8.31
2019-02-22T08:02:57.731Z,8.24
2019-02-22T08:04:01.173Z,8.22
2019-02-22T08:05:05.153Z,8.22
2019-02-22T08:06:08.600Z,8.24
2019-02-22T08:07:12.155Z,8.24
2019-02-22T08:08:15.591Z,8.31
2019-02-22T08:09:19.027Z,8.31
2019-02-22T08:10:22.526Z,8.31
2019-02-22T08:11:25.960Z,8.26
2019-02-22T08:12:29.411Z,8.30
2019-02-22T08:13:32.883Z,8.34
2019-02-22T08:14:36.365Z,8.37
2019-02-22T08:15:39.879Z,8.37
2019-02-22T08:16:43.392Z,8.37
2019-02-22T08:17:47.060Z,8.40
2019-02-22T08:19:01.199Z,8.43
2019-02-22T08:19:55.606Z,8.43
2019-02-22T08:20:59.044Z,8.37
2019-02-22T08:22:03.526Z,8.37
2019-02-22T08:23:07.151Z,8.36
2019-02-22T08:24:10.593Z,8.38
2019-02-22T08:25:14.107Z,8.38
2019-02-22T08:26:17.538Z,8.39
2019-02-22T08:27:20.976Z,8.36
2019-02-22T08:28:24.432Z,8.29
2019-02-22T08:29:27.864Z,8.34
2019-02-22T08:30:31.373Z,8.41
2019-02-22T08:31:34.813Z,8.42
2019-02-22T08:32:38.338Z,8.41
2019-02-22T08:33:41.784Z,8.39
2019-02-22T08:34:45.978Z,8.37
2019-02-22T08:35:49.532Z,8.38
2019-02-22T08:36:52.963Z,8.45
2019-02-22T08:37:56.471Z,8.45
2019-02-22T08:38:59.925Z,8.45
2019-02-22T08:40:03.709Z,8.45
2019-02-22T08:41:07.169Z,8.42
2019-02-22T08:42:10.589Z,8.47
2019-02-22T08:43:14.167Z,8.49
2019-02-22T08:44:17.624Z,8.41
2019-02-22T08:45:21.139Z,8.43
2019-02-22T08:46:24.566Z,8.43
2019-02-22T08:47:28.002Z,8.42
2019-02-22T08:48:31.440Z,8.41
2019-02-22T08:49:34.900Z,8.45
2019-02-22T08:50:38.613Z,8.45
2019-02-22T08:51:42.046Z,8.38
2019-02-22T08:52:45.602Z,8.38
2019-02-22T08:53:48.984Z,8.30
2019-02-22T08:54:52.515Z,8.30
2019-02-22T08:55:55.950Z,8.27
2019-02-22T08:56:59.390Z,8.30
2019-02-22T08:58:02.888Z,8.35
2019-02-22T08:59:06.340Z,8.32
2019-02-22T09:00:12.284Z,8.32
2019-02-22T09:01:20.016Z,8.40
2019-02-22T09:02:23.445Z,8.34
2019-02-22T09:03:26.888Z,8.28
2019-02-22T09:04:30.308Z,8.34
2019-02-22T09:05:33.835Z,8.37
2019-02-22T09:06:37.325Z,8.40
2019-02-22T09:07:40.767Z,8.40
2019-02-22T09:08:44.348Z,8.41
2019-02-22T09:09:48.068Z,8.54
2019-02-22T09:11:00.131Z,8.54
2019-02-22T09:11:57.763Z,8.63
2019-02-22T09:13:01.267Z,8.65
2019-02-22T09:14:04.692Z,8.68
2019-02-22T09:15:09.765Z,8.63
2019-02-22T09:16:13.253Z,8.61
2019-02-22T09:17:16.740Z,8.59
2019-02-22T09:18:20.198Z,8.60
2019-02-22T09:19:23.685Z,8.67
2019-02-22T09:20:27.127Z,8.72
2019-02-22T09:21:30.595Z,8.73
2019-02-22T09:22:34.043Z,8.68
2019-02-22T09:23:37.490Z,8.68
2019-02-22T09:24:40.934Z,8.69
2019-02-22T09:25:44.526Z,8.68
2019-02-22T09:26:48.155Z,8.68
2019-02-22T09:27:51.606Z,8.68
2019-02-22T09:28:55.633Z,8.75
2019-02-22T09:29:59.336Z,8.76
2019-02-22T09:31:02.901Z,8.76
2019-02-22T09:32:06.509Z,8.75
2019-02-22T09:33:09.970Z,8.76
2019-02-22T09:34:13.404Z,8.69
2019-02-22T09:35:16.841Z,8.69
2019-02-22T09:36:20.276Z,8.72
2019-02-22T09:37:23.806Z,8.66
2019-02-22T09:38:27.244Z,8.66
2019-02-22T09:39:30.679Z,8.70
2019-02-22T09:40:34.171Z,8.73
2019-02-22T09:41:37.606Z,8.77
2019-02-22T09:42:41.064Z,8.75
2019-02-22T09:43:54.641Z,8.77
2019-02-22T09:44:49.718Z,8.76
2019-02-22T09:45:53.218Z,8.73
2019-02-22T09:46:56.655Z,8.77
2019-02-22T09:48:00.164Z,8.78
2019-02-22T09:49:03.789Z,8.82
2019-02-22T09:50:10.152Z,8.85
2019-02-22T09:51:13.589Z,8.86
2019-02-22T09:52:17.034Z,8.85
2019-02-22T09:53:20.489Z,8.84
2019-02-22T09:54:23.933Z,8.85
2019-02-22T09:55:27.367Z,8.88
2019-02-22T09:56:30.885Z,8.93
2019-02-22T09:57:34.315Z,8.93
2019-02-22T09:58:37.758Z,8.93
2019-02-22T09:59:41.314Z,8.89
2019-02-22T10:00:44.952Z,8.90
2019-02-22T10:01:48.428Z,8.92
2019-02-22T10:02:51.864Z,8.97
2019-02-22T10:03:55.573Z,9.02
2019-02-22T10:04:59.318Z,9.05
2019-02-22T10:06:03.086Z,9.10
2019-02-22T10:07:06.774Z,9.10
2019-02-22T10:08:10.324Z,9.06
2019-02-22T10:09:14.241Z,8.96
2019-02-22T10:10:17.781Z,8.96
2019-02-22T10:11:21.233Z,8.89
2019-02-22T10:12:24.674Z,8.87
2019-02-22T10:13:28.157Z,8.92
2019-02-22T10:14:31.750Z,8.94
2019-02-22T10:15:35.214Z,8.98
2019-02-22T10:16:38.821Z,8.99
2019-02-22T10:17:42.311Z,9.02
2019-02-22T10:18:45.848Z,9.02
2019-02-22T10:19:49.299Z,9.03
2019-02-22T10:20:53.186Z,9.04
2019-02-22T10:21:57.614Z,9.07
2019-02-22T10:23:01.336Z,9.16
2019-02-22T10:24:04.875Z,9.16
2019-02-22T10:25:08.765Z,9.20
2019-02-22T10:26:12.269Z,9.22
2019-02-22T10:27:15.790Z,9.22
2019-02-22T10:28:19.295Z,9.13
2019-02-22T10:29:22.798Z,9.14
2019-02-22T10:30:26.402Z,9.16
2019-02-22T10:31:29.992Z,9.25
2019-02-22T10:32:33.636Z,9.24
2019-02-22T10:33:37.136Z,9.20
2019-02-22T10:34:40.585Z,9.16
2019-02-22T10:35:44.039Z,9.20
2019-02-22T10:36:47.566Z,9.18
2019-02-22T10:37:51.021Z,9.19
2019-02-22T10:38:54.652Z,9.15
2019-02-22T10:39:58.094Z,9.21
2019-02-22T10:41:01.838Z,9.25
2019-02-22T10:42:05.354Z,9.23
2019-02-22T10:43:08.979Z,9.22
2019-02-22T10:44:17.678Z,9.21
2019-02-22T10:45:17.776Z,9.19
2019-02-22T10:46:22.342Z,9.15
2019-02-22T10:47:26.123Z,9.15
2019-02-22T10:48:29.656Z,9.15
2019-02-22T10:49:33.175Z,9.20
2019-02-22T10:50:36.637Z,9.27
2019-02-22T10:51:40.262Z,9.31
2019-02-22T10:52:43.913Z,9.19
2019-02-22T10:53:47.479Z,9.20
2019-02-22T10:54:51.026Z,9.17
2019-02-22T10:55:54.494Z,9.15
2019-02-22T10:56:57.924Z,9.13
2019-02-22T10:58:01.587Z,9.19
2019-02-22T10:59:05.111Z,9.15
2019-02-22T11:00:15.224Z,9.18
2019-02-22T11:01:18.686Z,9.21
2019-02-22T11:02:22.177Z,9.26
2019-02-22T11:03:25.675Z,9.19
2019-02-22T11:04:29.180Z,9.26
2019-02-22T11:05:32.901Z,9.34
2019-02-22T11:06:36.377Z,9.34
2019-02-22T11:07:40.046Z,9.35
2019-02-22T11:08:43.550Z,9.32
2019-02-22T11:09:47.144Z,9.38
2019-02-22T11:10:50.811Z,9.46
2019-02-22T11:11:54.375Z,9.45
2019-02-22T11:12:57.838Z,9.44
2019-02-22T11:14:01.646Z,9.47
2019-02-22T11:15:08.170Z,9.46
2019-02-22T11:16:11.777Z,9.49
2019-02-22T11:17:15.434Z,9.55
2019-02-22T11:18:18.957Z,9.55
2019-02-22T11:19:22.588Z,9.48
2019-02-22T11:20:26.051Z,9.52
2019-02-22T11:21:29.637Z,9.49
2019-02-22T11:22:33.079Z,9.42
2019-02-22T11:23:36.543Z,9.42
2019-02-22T11:24:40.036Z,9.43
2019-02-22T11:25:43.665Z,9.48
2019-02-22T11:26:47.257Z,9.45
2019-02-22T11:27:50.694Z,9.43
2019-02-22T11:28:54.235Z,9.53
2019-02-22T11:29:57.752Z,9.55
2019-02-22T11:31:01.416Z,9.57
2019-02-22T11:32:04.998Z,9.58
2019-02-22T11:33:08.525Z,9.62
2019-02-22T11:34:12.274Z,9.68
2019-02-22T11:35:15.882Z,9.68
2019-02-22T11:36:19.540Z,9.63
2019-02-22T11:37:23.217Z,9.66
2019-02-22T11:38:27.040Z,9.61
2019-02-22T11:39:30.710Z,9.58
2019-02-22T11:40:34.206Z,9.58
2019-02-22T11:41:37.651Z,9.55
2019-02-22T11:42:41.134Z,9.61
2019-02-22T11:43:44.643Z,9.61
2019-02-22T11:44:48.302Z,9.70
2019-02-22T11:45:53.352Z,9.67
2019-02-22T11:46:57.173Z,9.68
2019-02-22T11:48:08.799Z,9.68
2019-02-22T11:49:06.517Z,9.68
2019-02-22T11:50:11.286Z,9.75
2019-02-22T11:51:15.301Z,9.77
2019-02-22T11:52:19.108Z,9.80
2019-02-22T11:53:22.712Z,9.84
2019-02-22T11:54:26.382Z,9.83
2019-02-22T11:55:30.007Z,9.90
2019-02-22T11:56:33.549Z,9.92
2019-02-22T11:57:37.212Z,9.91
2019-02-22T11:58:41.940Z,9.84
2019-02-22T11:59:45.349Z,9.85
2019-02-22T12:00:49.077Z,9.87
2019-02-22T12:01:53.039Z,9.89
2019-02-22T12:02:57.122Z,9.89
2019-02-22T12:04:00.631Z,9.82
2019-02-22T12:05:04.680Z,9.84
2019-02-22T12:06:08.374Z,9.80
2019-02-22T12:07:11.847Z,9.82
2019-02-22T12:08:15.279Z,9.84
2019-02-22T12:09:18.739Z,9.83
2019-02-22T12:10:22.211Z,9.93
2019-02-22T12:11:25.760Z,9.96
2019-02-22T12:12:29.411Z,9.96
2019-02-22T12:13:32.876Z,9.96
2019-02-22T12:14:36.561Z,9.99
2019-02-22T12:15:40.175Z,9.97
2019-02-22T12:16:43.613Z,10.04
2019-02-22T12:17:47.149Z,10.05
2019-02-22T12:18:50.613Z,10.09
2019-02-22T12:19:54.208Z,10.18
2019-02-22T12:20:57.871Z,10.17
2019-02-22T12:22:01.430Z,10.18
2019-02-22T12:23:05.100Z,10.18
2019-02-22T12:24:08.536Z,10.15
2019-02-22T12:25:13.126Z,10.15
2019-02-22T12:26:16.652Z,10.15
2019-02-22T12:27:20.080Z,10.18
2019-02-22T12:28:23.565Z,10.25
2019-02-22T12:29:27.005Z,10.28
2019-02-22T12:30:30.642Z,10.35
2019-02-22T12:31:34.441Z,10.29
2019-02-22T12:32:39.599Z,10.34
2019-02-22T12:33:43.094Z,10.36
2019-02-22T12:34:46.831Z,10.42
2019-02-22T12:35:50.228Z,10.48
2019-02-22T12:36:53.979Z,10.59
2019-02-22T12:37:57.503Z,10.62
2019-02-22T12:39:01.038Z,10.64
2019-02-22T12:40:06.895Z,10.65
2019-02-22T12:41:10.699Z,10.57
2019-02-22T12:42:14.256Z,10.58
2019-02-22T12:43:17.704Z,10.65
2019-02-22T12:44:21.172Z,10.77
2019-02-22T12:45:24.678Z,10.88
2019-02-22T12:46:28.239Z,10.90
2019-02-22T12:47:31.696Z,11.19
2019-02-22T12:48:35.283Z,11.53
2019-02-22T12:49:40.276Z,11.65
2019-02-22T12:50:43.843Z,11.55
2019-02-22T12:51:47.316Z,11.46
2019-02-22T12:52:50.843Z,11.37
2019-02-22T12:53:54.293Z,11.46
2019-02-22T12:54:57.831Z,11.69
2019-02-22T12:56:01.265Z,11.95
2019-02-22T12:57:04.720Z,11.72
2019-02-22T12:58:08.158Z,11.58
2019-02-22T12:59:11.590Z,11.57
2019-02-22T13:00:19.656Z,11.49
2019-02-22T13:01:24.608Z,11.46
2019-02-22T13:02:28.154Z,11.45
2019-02-22T13:03:31.779Z,11.41
2019-02-22T13:04:35.215Z,11.26
2019-02-22T13:05:38.655Z,11.09
2019-02-22T13:06:42.096Z,11.13
2019-02-22T13:07:45.599Z,11.09
2019-02-22T13:08:49.050Z,11.03
2019-02-22T13:09:52.473Z,11.02
2019-02-22T13:10:55.931Z,10.99
2019-02-22T13:11:59.386Z,10.99
2019-02-22T13:13:02.970Z,10.95
2019-02-22T13:14:06.565Z,10.96
2019-02-22T13:15:14.312Z,10.91
2019-02-22T13:16:17.065Z,10.90
2019-02-22T13:17:30.444Z,10.88
2019-02-22T13:18:25.757Z,10.81
2019-02-22T13:19:29.252Z,10.78
2019-02-22T13:20:32.743Z,10.72
2019-02-22T13:21:36.265Z,10.69
2019-02-22T13:22:39.717Z,10.74
2019-02-22T13:23:43.251Z,10.67
2019-02-22T13:24:46.727Z,10.68
2019-02-22T13:25:50.193Z,10.74
2019-02-22T13:26:53.621Z,10.70
2019-02-22T13:27:57.154Z,10.69
2019-02-22T13:29:00.762Z,10.68
2019-02-22T13:30:06.838Z,10.71
2019-02-22T13:31:10.567Z,10.71
2019-02-22T13:32:14.028Z,10.73
2019-02-22T13:33:17.519Z,10.64
2019-02-22T13:34:21.054Z,10.59
2019-02-22T13:35:24.505Z,10.59
2019-02-22T13:36:28.047Z,10.59
2019-02-22T13:37:31.553Z,10.64
2019-02-22T13:38:34.998Z,10.69
2019-02-22T13:39:38.463Z,10.73
2019-02-22T13:40:41.893Z,10.79
2019-02-22T13:41:45.340Z,10.77
2019-02-22T13:42:48.779Z,10.79
2019-02-22T13:43:52.349Z,10.76
2019-02-22T13:44:55.941Z,10.81
2019-02-22T13:45:59.383Z,10.82
2019-02-22T13:47:02.902Z,10.90
2019-02-22T13:48:06.472Z,10.91
2019-02-22T13:49:09.916Z,10.92
2019-02-22T13:50:15.375Z,10.84
2019-02-22T13:51:18.842Z,10.75
2019-02-22T13:52:22.283Z,10.72
2019-02-22T13:53:25.791Z,10.69
2019-02-22T13:54:29.244Z,10.68
2019-02-22T13:55:32.714Z,10.72
2019-02-22T13:56:36.281Z,10.71
2019-02-22T13:57:39.793Z,10.74
2019-02-22T13:58:46.050Z,10.82
2019-02-22T13:59:49.468Z,10.87
2019-02-22T14:00:52.992Z,10.94
2019-02-22T14:01:56.427Z,10.99
2019-02-22T14:02:59.912Z,10.97
2019-02-22T14:04:03.364Z,10.90